WA2GUG Weather Reports


Display with metric or nautical units.
time (UTC)temp
F
wind
direction
speed
MPH
gust
MPH
rain 1hr
in
rain 24hr
in
rain mn
in
humidity
%
barometer
mb
20180419152040 46 309 2.0 5.0 0.00 0.00 0.00 95 1007.1
20180419151540 46 337 1.0 4.0 0.00 0.00 0.00 87 1008.0
20180419151041 46 22 3.0 5.0 0.00 0.00 0.00 87 1007.1
20180419150540 47 38 2.0 5.0 0.00 0.00 0.00 82 1008.0
20180419150040 47 307 1.0 4.0 0.00 0.00 0.00 89 1008.0
20180419145540 47 327 2.0 7.0 0.00 0.00 0.00 84 1008.0
20180419145040 47 347 2.0 7.0 0.00 0.00 0.00 88 1007.1
20180419144540 47 348 2.0 4.0 0.00 0.00 0.00 77 1008.0
20180419144040 46 330 1.0 3.0 0.00 0.00 0.00 88 1007.1
20180419143540 46 284 1.0 4.0 0.00 0.00 0.00 89 1008.0
20180419143040 45 9 1.0 4.0 0.00 0.00 0.00 92 1008.0
20180419142540 44 270 1.0 2.0 0.00 0.00 0.00 93 1008.0
20180419142040 44 348 1.0 3.0 0.00 0.00 0.00 96 1008.0
20180419141539 43 348 1.0 3.0 0.00 0.00 0.00 94 1008.0
20180419141039 44 315 1.0 4.0 0.00 0.00 0.00 96 1007.1
20180419140539 43 50 1.0 4.0 0.00 0.00 0.00 95 1008.0
20180419140039 42 326 1.0 2.0 0.00 0.00 0.00 97 1007.1
20180419135539 42 298 1.0 2.0 0.00 0.00 0.00 99 1008.0
20180419135039 42 270 1.0 2.0 0.00 0.00 0.00 99 1007.0
20180419134539 40 45 0.0 2.0 0.00 0.00 0.00 99 1008.0
20180419134039 40 90 0.0 2.0 0.00 0.00 0.00 99 1006.0
20180419133539 0 195 0.0 2.0 0.00 0.00 0.00 99 1008.0
20180419133040 0 45 0.0 3.0 0.00 0.00 0.00 99 1008.0
20180419132539 0 327 1.0 3.0 0.00 0.00 0.00 99 1008.0
20180419132039 0 142 0.0 2.0 0.00 0.00 0.00 99 1007.1
20180419131539 0 222 1.0 2.0 0.00 0.00 0.00 99 1008.0
20180419131040 0 183 1.0 2.0 0.00 0.00 0.00 99 1008.0
20180419130539 0 225 0.0 1.0 0.00 0.00 0.00 99 1008.0
20180419130039 36 234 0.0 1.0 0.00 0.00 0.00 99 1007.1
20180419125539 36 90 0.0 2.0 0.00 0.00 0.00 99 1007.1
20180419125039 36 270 0.0 2.0 0.00 0.00 0.00 99 1008.0
20180419124539 36 150 1.0 1.0 0.00 0.00 0.00 99 1008.0
20180419124039 36 200 0.0 1.0 0.00 0.00 0.00 99 1007.1
20180419123539 35 183 0.0 1.0 0.00 0.00 0.00 99 1007.0
20180419123040 35 180 0.0 1.0 0.00 0.00 0.00 99 1008.0
20180419122539 35 0 0.0 1.0 0.00 0.00 0.00 99 1009.0
20180419122039 35 45 0.0 1.0 0.00 0.00 0.00 99 1008.1
20180419121539 35 323 0.0 1.0 0.00 0.00 0.00 99 1009.0
20180419121039 35 315 0.0 1.0 0.00 0.00 0.00 96 1008.1
20180419120539 35 304 0.0 1.0 0.00 0.00 0.00 99 1009.0
20180419120039 35 342 0.0 1.0 0.00 0.00 0.00 94 1008.1
20180419115539 35 337 0.0 1.0 0.00 0.00 0.00 99 1009.0
20180419115039 35 320 1.0 1.0 0.00 0.00 0.00 99 1009.0
20180419114539 35 175 0.0 1.0 0.00 0.00 0.00 99 1009.0
20180419114039 34 270 0.0 0.0 0.00 0.00 0.00 99 1008.1
20180419113539 34 288 0.0 0.0 0.00 0.00 0.00 99 1009.0
20180419113040 34 300 0.0 0.0 0.00 0.00 0.00 99 1008.1
20180419112539 34 47 0.0 0.0 0.00 0.00 0.00 99 1008.1
20180419112039 34 117 0.0 0.0 0.00 0.00 0.00 99 1008.1
20180419111539 34 292 0.0 99.0 0.00 0.00 0.00 99 1009.0
20180419111040 34 281 299.0 99.0 0.00 0.00 0.00 99 1008.1
20180419110540 34 309 399.0 99.0 0.00 0.00 0.00 93 1008.0
20180419110039 34 191 0.0 0.0 0.00 0.00 0.00 99 1008.0
20180419105539 34 330 0.0 1.0 0.00 0.00 0.00 99 1008.1
20180419105039 34 276 0.0 1.0 0.00 0.00 0.00 99 1008.0
20180419104539 34 279 0.0 1.0 0.00 0.00 0.00 99 1008.0
20180419104039 34 33 0.0 1.0 0.00 0.00 0.00 99 1007.1
20180419103539 34 22 0.0 1.0 0.00 0.00 0.00 99 1010.0
20180419103039 34 38 0.0 1.0 0.00 0.00 0.00 99 1007.1
20180419102539 34 28 0.0 0.0 0.00 0.00 0.00 99 1008.0
20180419102039 34 85 0.0 0.0 0.00 0.00 0.00 99 1008.0
20180419101539 34 302 0.0 1.0 0.00 0.00 0.00 99 1008.0
20180419101039 34 82 0.0 1.0 0.00 0.00 0.00 99 1007.1
20180419100539 35 84 0.0 1.0 0.00 0.00 0.00 99 1008.0
20180419100039 35 132 0.0 1.0 0.00 0.00 0.00 99 1007.1
20180419095539 35 105 0.0 1.0 0.00 0.00 0.00 99 1008.0
20180419095039 36 288 0.0 0.0 0.00 0.00 0.00 99 1007.1
20180419094539 36 283 0.0 0.0 0.00 0.00 0.00 99 1008.0
20180419094039 36 221 0.0 0.0 0.00 0.00 0.00 99 1008.0
20180419093539 36 67 0.0 0.0 0.00 0.00 0.00 99 1008.0
20180419093039 36 112 0.0 0.0 0.00 0.00 0.00 99 1008.0
20180419092539 36 58 0.0 1.0 0.00 0.00 0.00 99 1007.1
20180419092039 36 176 0.0 1.0 0.00 0.00 0.00 99 1007.1
20180419091539 36 131 0.0 0.0 0.00 0.00 0.00 99 1008.0
20180419091039 37 54 0.0 0.0 0.00 0.00 0.00 99 1007.1
20180419090539 37 354 0.0 1.0 0.00 0.00 0.00 99 1006.0
20180419090039 37 28 0.0 1.0 0.00 0.00 0.00 99 1008.0
20180419085539 37 67 0.0 0.0 0.00 0.00 0.00 99 1009.0
20180419085039 37 173 0.0 0.0 0.00 0.00 0.00 99 1008.0
20180419084539 37 217 0.0 1.0 0.00 0.00 0.00 99 1009.0
20180419084039 37 166 0.0 1.0 0.00 0.00 0.00 99 1008.0
20180419083539 37 106 0.0 1.0 0.00 0.00 0.00 99 1009.0
20180419083039 37 11 0.0 1.0 0.00 0.00 0.00 99 1008.1
20180419082539 37 30 0.0 1.0 0.00 0.00 0.00 99 1008.1
20180419082039 37 307 0.0 1.0 0.00 0.00 0.00 99 1009.0
20180419081539 37 225 0.0 1.0 0.00 0.00 0.00 99 1008.0
20180419081039 37 85 0.0 1.0 0.00 0.00 0.00 99 1008.0
20180419080539 37 109 0.0 1.0 0.00 0.00 0.00 99 1008.0
20180419080039 37 58 0.0 1.0 0.00 0.00 0.00 99 1008.0
20180419075539 37 328 0.0 1.0 0.00 0.00 0.00 99 1008.1
20180419075039 37 270 0.0 99.0 0.00 0.00 0.00 99 1008.0
20180419074539 37 180 199.0 99.0 0.00 0.00 0.00 99 1008.0
20180419074039 37 247 0.0 1.0 0.00 0.00 0.00 99 1007.1
20180419073539 37 273 0.0 1.0 0.00 0.00 0.00 99 1008.0
20180419073039 37 346 0.0 1.0 0.00 0.00 0.00 99 1008.0
20180419072539 37 286 0.0 1.0 0.00 0.00 0.00 99 1008.0
20180419072039 37 324 0.0 1.0 0.00 0.00 0.00 99 1007.1
20180419071539 37 320 0.0 2.0 0.00 0.00 0.00 99 1008.0
20180419071039 37 38 0.0 2.0 0.00 0.00 0.00 99 1007.1
20180419070539 37 25 1.0 1.0 0.00 0.00 0.00 99 1008.0
20180419070039 37 29 1.0 1.0 0.00 0.00 0.00 99 1008.0
20180419065539 37 6 1.0 1.0 0.00 0.00 0.00 99 1009.0
20180419065039 37 324 1.0 1.0 0.00 0.00 0.00 99 1008.1
20180419064539 37 345 0.0 1.0 0.00 0.00 0.00 99 1008.0
20180419064039 37 341 0.0 1.0 0.00 0.00 0.00 99 1007.1
20180419063539 37 157 0.0 0.0 0.00 0.00 0.00 99 1008.0
20180419063039 37 112 0.0 1.0 0.00 0.00 0.00 99 1008.0
20180419062539 37 52 0.0 1.0 0.00 0.00 0.00 99 1008.1
20180419062039 37 265 0.0 1.0 0.00 0.00 0.00 99 1008.1
20180419061539 37 210 0.0 1.0 0.00 0.00 0.00 99 1008.0
20180419061039 37 309 0.0 1.0 0.00 0.00 0.00 99 1008.0
20180419060539 37 85 0.0 0.0 0.00 0.00 0.00 99 1008.0
20180419060039 37 40 0.0 0.0 0.00 0.00 0.00 99 1008.1
20180419055539 37 236 0.0 0.0 0.00 0.00 0.00 99 1009.0
20180419055039 37 275 0.0 0.0 0.00 0.00 0.00 99 1008.1
20180419054539 37 309 0.0 1.0 0.00 0.00 0.00 99 1009.0
20180419054039 37 295 0.0 1.0 0.00 0.00 0.00 99 1008.1
20180419053539 37 260 0.0 2.0 0.00 0.00 0.00 99 1009.0
20180419053039 37 300 0.0 2.0 0.00 0.00 0.00 99 1008.1
20180419052539 37 28 0.0 1.0 0.00 0.00 0.00 99 1009.0
20180419052039 37 315 0.0 0.0 0.00 0.00 0.00 99 1008.1
20180419051539 37 317 0.0 0.0 0.00 0.00 0.00 99 1009.0
20180419051039 37 299 0.0 1.0 0.00 0.00 0.00 99 1008.1
20180419050539 37 290 0.0 1.0 0.00 0.00 0.00 99 1009.0
20180419050039 37 305 0.0 1.0 0.00 0.00 0.00 99 1008.1
20180419045539 37 324 0.0 1.0 0.00 0.00 0.00 99 1008.1
20180419045039 37 333 0.0 1.0 0.00 0.00 0.00 99 1008.1
20180419044539 37 328 0.0 1.0 0.00 0.00 0.00 98 1009.0
20180419044039 37 82 0.0 0.0 0.00 0.00 0.00 98 1008.1
20180419043539 37 303 0.0 0.0 0.00 0.00 0.00 98 1009.0
20180419043039 37 304 0.0 0.0 0.00 0.00 0.00 98 1008.1
20180419042539 37 168 0.0 0.0 0.00 0.00 0.00 98 1008.1
20180419042039 37 225 0.0 1.0 0.00 0.00 0.00 98 1008.1
20180419041539 37 16 0.0 1.0 0.00 0.00 0.00 98 1009.0
20180419041039 37 6 0.0 1.0 0.00 0.00 0.00 96 1009.1
20180419040539 37 345 0.0 0.0 0.00 0.00 0.00 97 1010.0
20180419040039 37 315 0.0 0.0 0.00 0.00 0.00 96 1009.1
20180419035539 37 2 0.0 0.0 0.00 0.00 0.00 97 1009.1
20180419035039 37 337 0.0 0.0 0.00 0.00 0.00 96 1009.1
20180419034539 37 318 0.0 1.0 0.00 0.00 0.00 96 1009.1
20180419034039 37 315 0.0 1.0 0.00 0.00 0.00 95 1009.0
20180419033539 37 10 0.0 1.0 0.00 0.00 0.00 94 1009.0
20180419033039 37 10 0.0 1.0 0.00 0.00 0.00 95 1009.0
20180419032539 37 355 0.0 0.0 0.00 0.00 0.00 94 1008.1
20180419032039 37 337 0.0 0.0 0.00 0.00 0.00 94 1008.1
20180419031539 37 11 0.0 1.0 0.00 0.00 0.00 93 1009.0
20180419031039 37 28 0.0 1.0 0.00 0.00 0.00 96 1008.1
20180419030539 37 33 0.0 1.0 0.00 0.00 0.00 92 1009.0
20180419030039 37 29 0.0 1.0 0.00 0.00 0.00 92 1008.1
20180419025539 37 94 0.0 1.0 0.00 0.00 0.00 91 1008.1
20180419025039 37 135 0.0 0.0 0.00 0.00 0.00 91 1008.1
20180419024539 38 135 0.0 0.0 0.00 0.00 0.00 91 1009.0
20180419024039 38 271 0.0 0.0 0.00 0.00 0.00 92 1008.1
20180419023539 38 163 0.0 0.0 0.00 0.00 0.00 92 1009.0
20180419023039 38 196 0.0 0.0 0.00 0.00 0.00 89 1008.1
20180419022539 38 26 0.0 0.0 0.00 0.00 0.00 91 1009.0
20180419022039 39 6 0.0 0.0 0.00 0.00 0.00 90 1008.1
20180419021539 39 331 0.0 0.0 0.00 0.00 0.00 89 1009.0
20180419021039 39 292 0.0 0.0 0.00 0.00 0.00 93 1008.1
20180419020539 40 303 0.0 0.0 0.00 0.00 0.00 93 1009.0
20180419020039 40 298 0.0 0.0 0.00 0.00 0.00 92 1009.0
20180419015539 40 292 0.0 1.0 0.00 0.00 0.00 86 1009.0
20180419015039 40 315 0.0 1.0 0.00 0.00 0.00 88 1009.0
20180419014539 40 333 0.0 99.0 0.00 0.00 0.00 87 1009.0
20180419014039 40 327 399.0 99.0 0.00 0.00 0.00 92 1009.0
20180419013539 40 276 1.0 2.0 0.00 0.00 0.00 88 1009.1
20180419013039 40 330 0.0 2.0 0.00 0.00 0.00 88 1010.0
20180419012539 40 32 0.0 1.0 0.00 0.00 0.00 92 1009.1
20180419012039 40 40 0.0 1.0 0.00 0.00 0.00 90 1009.1
20180419011539 40 292 0.0 0.0 0.00 0.00 0.00 87 1010.0
20180419011039 40 288 0.0 0.0 0.00 0.00 0.00 88 1010.0
20180419010539 41 315 0.0 1.0 0.00 0.00 0.00 87 1010.0
20180419010038 41 39 0.0 2.0 0.00 0.00 0.00 91 1009.1
20180419005538 41 3 1.0 2.0 0.00 0.00 0.00 88 1010.0
20180419005039 41 332 0.0 1.0 0.00 0.00 0.00 92 1010.0
20180419004539 41 355 0.0 1.0 0.00 0.00 0.00 86 1010.0
20180419004038 41 346 0.0 0.0 0.00 0.00 0.00 89 1009.1
20180419003538 41 315 0.0 2.0 0.00 0.00 0.00 86 1009.1
20180419003039 41 296 1.0 2.0 0.00 0.00 0.00 90 1009.1
20180419002538 41 333 0.0 2.0 0.00 0.00 0.00 89 1008.1
20180419002038 41 13 0.0 1.0 0.00 0.00 0.00 86 1008.1
20180419001538 41 306 0.0 1.0 0.00 0.00 0.00 85 1009.0
20180419001038 42 320 0.0 1.0 0.00 0.00 0.00 85 1009.0
20180419000538 42 288 0.0 1.0 0.00 0.00 0.00 89 1009.0
20180419000038 42 339 0.0 3.0 0.00 0.00 0.00 86 1008.0
20180418235538 42 330 1.0 3.0 0.00 0.00 0.00 86 1009.0
20180418235038 42 337 1.0 2.0 0.00 0.00 0.00 89 1009.0
20180418234538 42 22 1.0 2.0 0.00 0.00 0.00 90 1009.0
20180418234038 42 331 1.0 2.0 0.00 0.00 0.00 84 1008.1
20180418233538 42 0 1.0 2.0 0.00 0.00 0.00 86 1009.0
20180418233039 42 22 0.0 2.0 0.00 0.00 0.00 82 1009.0
20180418232538 43 319 1.0 2.0 0.00 0.00 0.00 83 1009.0
20180418232038 43 0 0.0 2.0 0.00 0.00 0.00 85 1009.0
20180418231538 43 281 1.0 99.0 0.00 0.00 0.00 91 1009.0
20180418231039 43 255 299.0 99.0 0.00 0.00 0.00 1009.0
20180418230538 43 327 0.0 2.0 0.00 0.00 0.00 84 1009.0
20180418230038 43 320 1.0 2.0 0.00 0.00 0.00 83 1008.1
20180418225538 43 322 1.0 2.0 0.00 0.00 0.00 90 1009.0
20180418225038 43 347 0.0 4.0 0.00 0.00 0.00 80 1009.0
20180418224538 43 333 2.0 4.0 0.00 0.00 0.00 81 1009.0
20180418224038 44 37 1.0 4.0 0.00 0.00 0.00 86 1009.0
20180418223538 44 315 1.0 4.0 0.00 0.00 0.00 79 1009.0
20180418223039 44 311 2.0 5.0 0.00 0.00 0.00 79 1009.1
20180418222538 44 328 2.0 5.0 0.00 0.00 0.00 79 1009.1
20180418222038 44 345 3.0 5.0 0.00 0.00 0.00 89 1009.1
20180418221538 44 333 2.0 6.0 0.00 0.00 0.00 86 1011.0
20180418221038 44 300 2.0 6.0 0.00 0.00 0.00 84 1009.0
20180418220538 45 315 3.0 6.0 0.00 0.00 0.00 73 1009.0
20180418220038 45 67 2.0 5.0 0.00 0.00 0.00 81 1009.0
20180418215538 45 310 3.0 5.0 0.00 0.00 0.00 78 1009.0
20180418215038 45 310 2.0 5.0 0.00 0.00 0.00 82 1009.0
20180418214538 45 303 3.0 6.0 0.00 0.00 0.00 80 1009.0
20180418214038 46 301 3.0 6.0 0.00 0.00 0.00 82 1008.1
20180418213538 46 210 2.0 5.0 0.00 0.00 0.00 80 1008.1
20180418213039 46 326 2.0 8.0 0.00 0.00 0.00 91 1009.0
20180418212538 46 333 3.0 9.0 0.00 0.00 0.00 77 1009.0
20180418212038 46 296 3.0 9.0 0.00 0.00 0.00 84 1009.0
20180418211538 47 296 2.0 6.0 0.00 0.00 0.00 79 1008.1
20180418211038 47 328 2.0 6.0 0.00 0.00 0.00 78 1008.1
20180418210538 48 303 2.0 4.0 0.00 0.00 0.00 73 1009.0
20180418210038 47 48 2.0 5.0 0.00 0.00 0.00 73 1009.0
20180418205538 47 311 2.0 8.0 0.00 0.00 0.00 80 1008.1
20180418205038 48 356 4.0 8.0 0.00 0.00 0.00 70 1008.1
20180418204538 48 351 3.0 6.0 0.00 0.00 0.00 77 1009.0
20180418204038 49 326 3.0 99.0 0.00 0.00 0.00 67 1009.0
20180418203539 49 315 399.0 99.0 0.00 0.00 0.00 72 1009.0
20180418203038 50 307 2.0 9.0 0.00 0.00 0.00 71 1009.0
20180418202538 50 15 3.0 10.0 0.00 0.00 0.00 71 1008.1
20180418202038 51 302 4.0 10.0 0.00 0.00 0.00 71 1009.0
20180418201538 52 327 3.0 6.0 0.00 0.00 0.00 66 1009.0
20180418201039 53 7 3.0 11.0 0.00 0.00 0.00 76 1008.1
20180418200538 54 300 4.0 11.0 0.00 0.00 0.00 70 1009.0
20180418200039 56 327 4.0 99.0 0.00 0.00 0.00 68 1009.0
20180418195538 60 331 399.0 99.0 0.00 0.00 0.00 60 1009.0
20180418195038 62 315 5.0 10.0 0.00 0.00 0.00 66 1009.0
20180418194538 61 342 5.0 10.0 0.00 0.00 0.00 60 1009.0
20180418194038 59 324 4.0 9.0 0.00 0.00 0.00 60 1009.0
20180418193538 58 334 4.0 12.0 0.00 0.00 0.00 71 1009.0
20180418193038 58 331 6.0 99.0 0.00 0.00 0.00 62 1009.0
20180418192538 59 341 1.0 99.0 0.00 0.00 0.00 70 1009.0
20180418192038 60 281 4.0 11.0 0.00 0.00 0.00 77 1009.0
20180418191538 61 319 4.0 11.0 0.00 0.00 0.00 64 1008.1
20180418191038 60 312 3.0 8.0 0.00 0.00 0.00 59 1008.1
20180418190538 61 320 5.0 8.0 0.00 0.00 0.00 64 1008.1
20180418190038 62 330 3.0 8.0 0.00 0.00 0.00 56 1009.0
20180418185538 59 331 3.0 10.0 0.00 0.00 0.00 56 1008.1
20180418185038 58 253 5.0 10.0 0.00 0.00 0.00 71 1009.0
20180418184538 55 284 4.0 7.0 0.00 0.00 0.00 70 1009.0
20180418184038 54 344 3.0 7.0 0.00 0.00 0.00 75 1009.0
20180418183538 54 355 3.0 8.0 0.00 0.00 0.00 60 1009.0
20180418183038 54 331 4.0 8.0 0.00 0.00 0.00 71 1008.1
20180418182538 53 241 4.0 6.0 0.00 0.00 0.00 72 1008.1
20180418182038 52 251 3.0 7.0 0.00 0.00 0.00 65 1009.0
20180418181538 51 217 2.0 8.0 0.00 0.00 0.00 79 1008.1
20180418181038 51 300 4.0 14.0 0.00 0.00 0.00 75 1009.0
20180418180538 51 237 5.0 14.0 0.00 0.00 0.00 76 1009.0
20180418180038 51 333 5.0 12.0 0.00 0.00 0.00 64 1009.0
20180418175538 51 28 3.0 6.0 0.00 0.00 0.00 78 1008.1
20180418175038 51 340 3.0 8.0 0.00 0.00 0.00 75 1008.1
20180418174538 52 274 5.0 11.0 0.00 0.00 0.00 62 1009.0
20180418174038 53 281 5.0 11.0 0.00 0.00 0.00 65 1009.0
20180418173538 50 312 3.0 8.0 0.00 0.00 0.00 59 1008.1
20180418173038 49 298 4.0 9.0 0.00 0.00 0.00 79 1009.0
20180418172538 49 295 5.0 9.0 0.00 0.00 0.00 81 1008.1
20180418172038 48 329 3.0 99.0 0.00 0.00 0.00 81 1009.0
20180418171538 47 342 399.0 99.0 0.00 0.00 0.00 80 1009.0
20180418171038 47 331 4.0 10.0 0.00 0.00 0.00 74 1008.1
20180418170538 47 301 4.0 11.0 0.00 0.00 0.00 81 1009.0
20180418170038 47 275 5.0 11.0 0.00 0.00 0.00 78 1009.0
20180418165538 46 292 4.0 8.0 0.00 0.00 0.00 76 1008.1
20180418165038 46 285 4.0 8.0 0.00 0.00 0.00 76 1008.1
20180418164538 47 265 3.0 9.0 0.00 0.00 0.00 72 1009.0
20180418164038 48 280 5.0 9.0 0.00 0.00 0.00 80 1009.0
20180418163538 47 279 3.0 10.0 0.00 0.00 0.00 85 1009.0
20180418163038 48 281 4.0 10.0 0.00 0.00 0.00 82 1009.0
20180418162538 49 225 4.0 9.0 0.00 0.00 0.00 63 1008.1
20180418162038 49 284 4.0 8.0 0.00 0.00 0.00 76 1009.0
20180418161538 48 298 3.0 6.0 0.00 0.00 0.00 82 1009.0
20180418161038 47 339 3.0 6.0 0.00 0.00 0.00 77 1008.1
20180418160538 46 317 3.0 7.0 0.00 0.00 0.00 80 1008.1
20180418160038 46 286 4.0 9.0 0.00 0.00 0.00 86 1009.0
20180418155538 47 328 4.0 9.0 0.00 0.00 0.00 74 1008.1
20180418155038 47 315 4.0 9.0 0.00 0.00 0.00 68 1009.0
20180418154538 47 324 3.0 5.0 0.00 0.00 0.00 76 1008.1
20180418154038 47 230 2.0 5.0 0.00 0.00 0.00 83 1008.0
20180418153538 46 346 2.0 5.0 0.00 0.00 0.00 74 1008.0
20180418153039 46 305 2.0 5.0 0.00 0.00 0.00 83 1008.0
20180418152538 46 266 3.0 7.0 0.00 0.00 0.00 82 1008.0